createdAt,value
2022-08-17T00:01:51.912Z,95785.16
2022-08-17T00:04:21.016Z,95820.25
2022-08-17T00:06:49.599Z,95824.91
2022-08-17T00:09:18.601Z,95780.44
2022-08-17T00:12:34.866Z,95820.44
2022-08-17T00:14:36.248Z,95763.13
2022-08-17T00:17:06.467Z,95824.69
2022-08-17T00:19:34.059Z,95808.34
2022-08-17T00:22:35.053Z,95828.50
2022-08-17T00:24:51.663Z,95827.34
2022-08-17T00:27:20.194Z,95825.66
2022-08-17T00:29:52.109Z,95795.31
2022-08-17T00:33:13.839Z,95800.25
2022-08-17T00:35:11.340Z,95811.66
2022-08-17T00:37:38.979Z,95811.59
2022-08-17T00:40:06.730Z,95791.53
2022-08-17T00:42:33.718Z,95807.91
2022-08-17T00:45:00.478Z,95763.66
2022-08-17T00:47:29.414Z,95765.28
2022-08-17T00:49:57.004Z,95789.66
2022-08-17T00:52:28.927Z,95778.38
2022-08-17T00:54:56.127Z,95793.22
2022-08-17T00:57:28.367Z,95800.34
2022-08-17T01:00:02.550Z,95783.81
2022-08-17T01:02:50.870Z,95797.16
2022-08-17T01:05:22.390Z,95778.97
2022-08-17T01:07:50.763Z,95784.09
2022-08-17T01:10:59.577Z,95795.47
2022-08-17T01:13:08.119Z,95768.66
2022-08-17T01:15:38.368Z,95698.25
2022-08-17T01:18:07.902Z,95800.44
2022-08-17T01:20:48.249Z,95767.28
2022-08-17T01:23:21.057Z,95798.34
2022-08-17T01:25:55.240Z,95765.94
2022-08-17T01:28:52.919Z,95792.34
2022-08-17T01:31:11.677Z,95777.16
2022-08-17T01:33:39.048Z,95754.78
2022-08-17T01:36:08.037Z,95780.03
2022-08-17T01:38:37.368Z,95783.66
2022-08-17T01:41:12.515Z,95786.81
2022-08-17T01:43:58.028Z,95773.50
2022-08-17T01:46:28.746Z,95776.19
2022-08-17T01:48:57.493Z,95787.38
2022-08-17T01:51:32.696Z,95773.41
2022-08-17T01:54:05.238Z,95787.75
2022-08-17T01:56:37.428Z,95770.41
2022-08-17T01:59:06.362Z,95768.91
2022-08-17T02:01:35.117Z,95787.31
2022-08-17T02:04:04.926Z,95744.34
2022-08-17T02:06:45.303Z,95784.44
2022-08-17T02:09:26.298Z,95786.16
2022-08-17T02:12:38.591Z,95788.47
2022-08-17T02:14:50.318Z,95772.13
2022-08-17T02:17:18.204Z,95778.00
2022-08-17T02:19:45.216Z,95776.19
2022-08-17T02:22:12.500Z,95777.88
2022-08-17T02:25:00.651Z,95773.56
2022-08-17T02:27:28.040Z,95750.09
2022-08-17T02:29:55.321Z,95693.19
2022-08-17T02:32:25.478Z,95780.13
2022-08-17T02:34:57.236Z,95752.53
2022-08-17T02:37:26.333Z,95751.72
2022-08-17T02:39:54.231Z,95769.66
2022-08-17T02:42:31.394Z,95759.38
2022-08-17T02:44:58.088Z,95745.78
2022-08-17T02:47:25.408Z,95740.78
2022-08-17T02:49:55.908Z,95751.03
2022-08-17T02:52:43.101Z,95734.69
2022-08-17T02:55:22.256Z,95739.63
2022-08-17T02:57:51.327Z,95726.88
2022-08-17T03:00:22.450Z,95751.09
2022-08-17T03:02:51.669Z,95723.75
2022-08-17T03:05:21.276Z,95729.53
2022-08-17T03:07:48.761Z,95722.44
2022-08-17T03:10:17.254Z,95741.81
2022-08-17T03:12:45.913Z,95749.00
2022-08-17T03:15:17.567Z,95728.41
2022-08-17T03:17:44.595Z,95741.25
2022-08-17T03:20:12.892Z,95701.38
2022-08-17T03:22:42.975Z,95721.25
2022-08-17T03:25:21.413Z,95742.69
2022-08-17T03:27:50.275Z,95744.25
2022-08-17T03:30:19.524Z,95744.91
2022-08-17T03:32:50.449Z,95744.84
2022-08-17T03:35:19.482Z,95753.47
2022-08-17T03:37:46.588Z,95757.94
2022-08-17T03:40:34.429Z,95760.53
2022-08-17T03:43:18.818Z,95722.25
2022-08-17T03:46:04.588Z,95763.31
2022-08-17T03:48:53.858Z,95756.53
2022-08-17T03:51:42.697Z,95759.78
2022-08-17T03:54:29.664Z,95761.50
2022-08-17T03:57:04.371Z,95773.34
2022-08-17T03:59:32.005Z,95751.25
2022-08-17T04:02:04.987Z,95756.34
2022-08-17T04:04:33.441Z,95752.06
2022-08-17T04:07:00.248Z,95748.50
2022-08-17T04:09:27.591Z,95742.47
2022-08-17T04:11:54.590Z,95744.16
2022-08-17T04:14:25.575Z,95760.47
2022-08-17T04:16:53.725Z,95755.59
2022-08-17T04:19:23.433Z,95746.34
2022-08-17T04:21:50.232Z,95777.63
2022-08-17T04:24:17.760Z,95751.81
2022-08-17T04:26:52.141Z,95747.28
2022-08-17T04:29:23.273Z,95760.88
2022-08-17T04:31:53.072Z,95768.63
2022-08-17T04:34:20.214Z,95766.16
2022-08-17T04:36:50.312Z,95757.47
2022-08-17T04:39:19.155Z,95762.56
2022-08-17T04:42:04.736Z,95775.31
2022-08-17T04:44:37.579Z,95757.28
2022-08-17T04:47:05.322Z,95752.00
2022-08-17T04:49:33.358Z,95755.94
2022-08-17T04:52:04.596Z,95765.09
2022-08-17T04:54:32.100Z,95769.78
2022-08-17T04:56:59.903Z,95752.22
2022-08-17T04:59:26.726Z,95767.03
2022-08-17T05:01:56.007Z,95765.91
2022-08-17T05:04:34.187Z,95789.19
2022-08-17T05:07:04.426Z,95768.47
2022-08-17T05:09:32.092Z,95787.69
2022-08-17T05:12:02.611Z,95776.88
2022-08-17T05:14:33.326Z,95784.34
2022-08-17T05:17:04.599Z,95785.22
2022-08-17T05:19:38.297Z,95748.47
2022-08-17T05:22:05.724Z,95796.28
2022-08-17T05:24:42.586Z,95779.94
2022-08-17T05:27:20.171Z,95784.53
2022-08-17T05:29:47.047Z,95783.38
2022-08-17T05:32:38.675Z,95790.72
2022-08-17T05:35:01.916Z,95773.63
2022-08-17T05:37:28.503Z,95796.44
2022-08-17T05:39:55.231Z,95793.69
2022-08-17T05:42:23.105Z,95762.91
2022-08-17T05:44:49.807Z,95782.94
2022-08-17T05:47:17.443Z,95793.59
2022-08-17T05:49:44.249Z,95794.06
2022-08-17T05:52:45.511Z,95783.66
2022-08-17T05:55:36.772Z,95792.69
2022-08-17T05:58:24.445Z,95798.91
2022-08-17T06:01:35.413Z,95807.28
2022-08-17T06:04:22.358Z,95785.41
2022-08-17T06:06:52.489Z,95803.69
2022-08-17T06:09:36.067Z,95798.94
2022-08-17T06:12:26.273Z,95779.66
2022-08-17T06:14:58.861Z,95808.75
2022-08-17T06:17:29.152Z,95803.97
2022-08-17T06:20:03.176Z,95824.69
2022-08-17T06:22:36.871Z,95808.25
2022-08-17T06:25:17.978Z,95810.84
2022-08-17T06:27:53.510Z,95833.72
2022-08-17T06:30:27.701Z,95824.34
2022-08-17T06:33:01.313Z,95829.94
2022-08-17T06:35:44.511Z,95827.06
2022-08-17T06:38:38.531Z,95835.31
2022-08-17T06:41:12.600Z,95812.47
2022-08-17T06:44:03.816Z,95812.81
2022-08-17T06:46:38.353Z,95792.03
2022-08-17T06:49:22.007Z,95823.66
2022-08-17T06:52:45.255Z,95835.31
2022-08-17T06:55:21.439Z,95852.72
2022-08-17T06:57:55.608Z,95858.63
2022-08-17T07:00:26.964Z,95847.78
2022-08-17T07:03:02.339Z,95858.25
2022-08-17T07:05:48.239Z,95862.56
2022-08-17T07:08:20.101Z,95877.09
2022-08-17T07:10:57.808Z,95868.53
2022-08-17T07:13:29.308Z,95880.72
2022-08-17T07:16:04.680Z,95880.78
2022-08-17T07:18:33.362Z,95878.47
2022-08-17T07:21:14.176Z,95871.63
2022-08-17T07:24:29.512Z,95896.28
2022-08-17T07:27:05.719Z,95872.41
2022-08-17T07:29:38.560Z,95882.16
2022-08-17T07:32:08.338Z,95886.69
2022-08-17T07:35:37.934Z,95892.34
2022-08-17T07:38:25.530Z,95887.03
2022-08-17T07:41:01.950Z,95905.16
2022-08-17T07:43:31.733Z,95904.50
2022-08-17T07:46:38.065Z,95907.81
2022-08-17T07:49:09.416Z,95901.28
2022-08-17T07:51:43.224Z,95906.56
2022-08-17T07:54:15.765Z,95907.38
2022-08-17T07:56:53.656Z,95899.25
2022-08-17T07:59:28.646Z,95894.38
2022-08-17T08:02:15.689Z,95912.88
2022-08-17T08:05:00.945Z,95917.41
2022-08-17T08:07:34.687Z,95924.97
2022-08-17T08:10:08.081Z,95916.88
2022-08-17T08:12:37.681Z,95917.53
2022-08-17T08:15:20.971Z,95913.19
2022-08-17T08:17:55.645Z,95929.59
2022-08-17T08:20:51.338Z,95920.28
2022-08-17T08:23:42.821Z,95914.22
2022-08-17T08:26:23.067Z,95925.34
2022-08-17T08:29:12.505Z,95928.13
2022-08-17T08:31:55.244Z,95920.41
2022-08-17T08:34:53.348Z,95905.75
2022-08-17T08:37:36.699Z,95918.97
2022-08-17T08:40:38.327Z,95918.69
2022-08-17T08:43:23.396Z,95910.41
2022-08-17T08:46:03.523Z,95916.28
2022-08-17T08:48:55.956Z,95914.78
2022-08-17T08:51:46.158Z,95921.28
2022-08-17T08:54:38.748Z,95919.31
2022-08-17T08:57:24.360Z,95911.78
2022-08-17T09:00:14.881Z,95913.06
2022-08-17T09:02:55.650Z,95891.72
2022-08-17T09:05:32.522Z,95889.97
2022-08-17T09:08:06.312Z,95896.88
2022-08-17T09:10:52.019Z,95893.97
2022-08-17T09:13:30.311Z,95890.94
2022-08-17T09:16:01.965Z,95891.94
2022-08-17T09:19:01.132Z,95873.09
2022-08-17T09:21:22.633Z,95901.47
2022-08-17T09:24:01.415Z,95900.50
2022-08-17T09:26:33.076Z,95901.81
2022-08-17T09:29:02.761Z,95906.06
2022-08-17T09:31:35.503Z,95958.38
2022-08-17T09:34:18.836Z,95868.50
2022-08-17T09:36:52.468Z,95862.53
2022-08-17T09:39:25.383Z,95861.81
2022-08-17T09:42:03.239Z,95852.38
2022-08-17T09:44:47.748Z,95855.59
2022-08-17T09:47:35.049Z,95871.53
2022-08-17T09:50:08.293Z,95837.06
2022-08-17T09:52:35.806Z,95844.13
2022-08-17T09:55:05.971Z,95835.09
2022-08-17T09:57:43.199Z,95836.16
2022-08-17T10:00:27.484Z,95822.72
2022-08-17T10:03:16.729Z,95813.44
2022-08-17T10:06:08.511Z,95797.13
2022-08-17T10:08:57.565Z,95789.41
2022-08-17T10:11:57.532Z,95795.28
2022-08-17T10:14:36.758Z,95812.59
2022-08-17T10:17:26.439Z,95800.31
2022-08-17T10:20:02.253Z,95807.56
2022-08-17T10:22:55.072Z,95830.97
2022-08-17T10:25:54.648Z,95806.06
2022-08-17T10:28:29.552Z,95802.66
2022-08-17T10:34:25.251Z,95821.84
2022-08-17T10:37:16.783Z,95813.22
2022-08-17T10:40:10.655Z,95818.38
2022-08-17T10:42:56.429Z,95821.59
2022-08-17T10:45:29.582Z,95813.44
2022-08-17T10:48:30.126Z,95817.00
2022-08-17T10:50:59.834Z,95822.38
2022-08-17T10:53:32.743Z,95826.63
2022-08-17T10:56:11.628Z,95828.19
2022-08-17T10:58:54.455Z,95827.91
2022-08-17T11:01:37.824Z,95840.94
2022-08-17T11:04:19.629Z,95834.28
2022-08-17T11:07:02.063Z,95829.63
2022-08-17T11:10:06.082Z,95852.78
2022-08-17T11:12:55.435Z,95852.50
2022-08-17T11:15:59.427Z,95851.19
2022-08-17T11:18:52.563Z,95848.25
2022-08-17T11:21:40.222Z,95832.34
2022-08-17T11:24:34.964Z,95844.16
2022-08-17T11:27:23.970Z,95835.88
2022-08-17T11:30:02.287Z,95845.25
2022-08-17T11:32:37.315Z,95853.06
2022-08-17T11:35:11.858Z,95837.41
2022-08-17T11:38:16.238Z,95842.28
2022-08-17T11:41:07.576Z,95841.25
2022-08-17T11:43:55.913Z,95834.78
2022-08-17T11:47:10.147Z,95848.72
2022-08-17T11:49:57.922Z,95863.16
2022-08-17T11:52:45.985Z,95856.25
2022-08-17T11:55:40.714Z,95857.19
2022-08-17T11:58:37.225Z,95866.91
2022-08-17T12:01:24.571Z,95859.72
2022-08-17T12:04:15.669Z,95853.00
2022-08-17T12:06:50.667Z,95858.66
2022-08-17T12:09:25.021Z,95876.34
2022-08-17T12:12:14.443Z,95892.31
2022-08-17T12:17:42.972Z,95866.19
2022-08-17T12:20:33.314Z,95879.00
2022-08-17T12:23:28.475Z,95882.88
2022-08-17T12:26:01.236Z,95891.03
2022-08-17T12:28:33.415Z,95874.50
2022-08-17T12:31:23.808Z,95894.28
2022-08-17T12:33:51.843Z,95862.28
2022-08-17T12:36:24.743Z,95779.66
2022-08-17T12:39:13.074Z,95824.03
2022-08-17T12:41:46.849Z,95825.50
2022-08-17T12:44:21.960Z,95803.41
2022-08-17T12:47:19.388Z,95798.50
2022-08-17T12:49:50.574Z,95775.84
2022-08-17T12:52:27.150Z,95770.84
2022-08-17T12:55:07.533Z,95777.50
2022-08-17T12:57:38.573Z,95788.88
2022-08-17T13:00:17.850Z,95786.00
2022-08-17T13:02:51.353Z,95783.06
2022-08-17T13:05:25.944Z,95784.09
2022-08-17T13:07:54.545Z,95758.91
2022-08-17T13:10:33.053Z,95779.44
2022-08-17T13:13:04.483Z,95777.56
2022-08-17T13:15:38.162Z,95767.78
2022-08-17T13:18:40.189Z,95764.00
2022-08-17T13:21:26.893Z,95759.91
2022-08-17T13:24:04.551Z,95762.75
2022-08-17T13:26:37.362Z,95768.22
2022-08-17T13:29:07.634Z,95752.81
2022-08-17T13:31:52.328Z,95756.00
2022-08-17T13:34:23.821Z,95757.94
2022-08-17T13:37:27.149Z,95758.59
2022-08-17T13:40:15.063Z,95751.72
2022-08-17T13:42:54.320Z,95743.63
2022-08-17T13:45:35.637Z,95760.41
2022-08-17T13:48:27.113Z,95758.09
2022-08-17T13:50:57.117Z,95769.66
2022-08-17T13:53:31.118Z,95766.41
2022-08-17T13:56:38.032Z,95750.09
2022-08-17T13:59:36.082Z,95732.44
2022-08-17T14:02:17.295Z,95742.41
2022-08-17T14:04:46.992Z,95750.94
2022-08-17T14:07:15.958Z,95732.84
2022-08-17T14:09:53.209Z,95744.72
2022-08-17T14:12:21.833Z,95742.47
2022-08-17T14:14:49.504Z,95731.91
2022-08-17T14:17:16.426Z,95734.47
2022-08-17T14:19:43.809Z,95714.63
2022-08-17T14:22:28.174Z,95715.13
2022-08-17T14:24:58.599Z,95723.75
2022-08-17T14:27:28.012Z,95687.69
2022-08-17T14:29:56.393Z,95718.63
2022-08-17T14:32:29.921Z,95711.91
2022-08-17T14:34:59.595Z,95700.28
2022-08-17T14:37:28.839Z,95700.47
2022-08-17T14:40:00.184Z,95698.59
2022-08-17T14:42:30.051Z,95686.31
2022-08-17T14:44:58.601Z,95678.25
2022-08-17T14:47:26.575Z,95679.56
2022-08-17T14:49:53.275Z,95682.22
2022-08-17T14:52:21.787Z,95683.66
2022-08-17T14:54:51.269Z,95677.06
2022-08-17T14:57:33.115Z,95696.19
2022-08-17T15:00:03.513Z,95700.81
2022-08-17T15:02:44.727Z,95697.63
2022-08-17T15:05:16.473Z,95676.91
2022-08-17T15:07:44.709Z,95666.53
2022-08-17T15:10:13.878Z,95669.97
2022-08-17T15:12:41.924Z,95693.13
2022-08-17T15:15:13.175Z,95706.16
2022-08-17T15:17:44.757Z,95699.00
2022-08-17T15:20:15.463Z,95706.75
2022-08-17T15:22:43.100Z,95686.78
2022-08-17T15:25:10.555Z,95689.28
2022-08-17T15:27:38.664Z,95697.81
2022-08-17T15:30:07.410Z,95703.56
2022-08-17T15:32:38.020Z,95719.56
2022-08-17T15:35:07.819Z,95698.75
2022-08-17T15:37:36.386Z,95701.88
2022-08-17T15:40:04.526Z,95708.25
2022-08-17T15:42:31.751Z,95713.78
2022-08-17T15:45:06.551Z,95708.97
2022-08-17T15:47:34.099Z,95706.63
2022-08-17T15:50:06.159Z,95699.28
2022-08-17T15:52:37.968Z,95691.22
2022-08-17T15:55:09.854Z,95692.88
2022-08-17T15:57:36.567Z,95696.59
2022-08-17T16:00:06.190Z,95706.72
2022-08-17T16:03:44.452Z,95712.44
2022-08-17T16:05:31.243Z,95703.34
2022-08-17T16:07:59.890Z,95693.13
2022-08-17T16:10:35.365Z,95703.72
2022-08-17T16:13:04.412Z,95705.91
2022-08-17T16:15:33.006Z,95701.38
2022-08-17T16:18:05.211Z,95705.94
2022-08-17T16:20:33.371Z,95702.25
2022-08-17T16:23:00.270Z,95700.41
2022-08-17T16:25:52.029Z,95692.78
2022-08-17T16:28:18.619Z,95702.06
2022-08-17T16:30:45.878Z,95704.06
2022-08-17T16:33:12.643Z,95697.69
2022-08-17T16:35:41.866Z,95693.66
2022-08-17T16:38:11.260Z,95700.88
2022-08-17T16:40:38.064Z,95702.75
2022-08-17T16:43:10.316Z,95703.06
2022-08-17T16:45:40.246Z,95670.44
2022-08-17T16:48:09.421Z,95683.41
2022-08-17T16:50:36.785Z,95656.31
2022-08-17T16:53:16.206Z,95672.31
2022-08-17T16:55:51.948Z,95679.88
2022-08-17T16:58:20.038Z,95668.78
2022-08-17T17:00:48.751Z,95670.13
2022-08-17T17:03:21.739Z,95653.25
2022-08-17T17:06:06.584Z,95660.28
2022-08-17T17:08:44.493Z,95654.25
2022-08-17T17:11:26.924Z,95645.66
2022-08-17T17:14:01.453Z,95648.50
2022-08-17T17:16:35.457Z,95645.94
2022-08-17T17:19:09.439Z,95630.91
2022-08-17T17:21:57.068Z,95648.03
2022-08-17T17:24:34.367Z,95636.53
2022-08-17T17:27:21.117Z,95657.34
2022-08-17T17:30:09.950Z,95647.59
2022-08-17T17:32:50.318Z,95628.66
2022-08-17T17:35:23.238Z,95622.88
2022-08-17T17:37:50.499Z,95650.59
2022-08-17T17:40:23.142Z,95641.59
2022-08-17T17:42:55.205Z,95636.13
2022-08-17T17:45:33.375Z,95638.22
2022-08-17T17:48:01.511Z,95614.13
2022-08-17T17:50:37.025Z,95635.84
2022-08-17T17:53:07.620Z,95625.56
2022-08-17T17:55:56.079Z,95637.47
2022-08-17T17:58:32.515Z,95625.72
2022-08-17T18:01:27.403Z,95622.47
2022-08-17T18:04:08.319Z,95629.03
2022-08-17T18:07:05.440Z,95624.75
2022-08-17T18:09:51.670Z,95626.78
2022-08-17T18:12:22.033Z,95626.69
2022-08-17T18:15:10.998Z,95630.63
2022-08-17T18:17:38.032Z,95610.69
2022-08-17T18:20:08.487Z,95597.34
2022-08-17T18:22:37.167Z,95613.94
2022-08-17T18:25:38.990Z,95613.78
2022-08-17T18:28:07.932Z,95607.41
2022-08-17T18:30:35.000Z,95605.28
2022-08-17T18:33:23.745Z,95629.84
2022-08-17T18:35:58.877Z,95602.28
2022-08-17T18:38:41.462Z,95630.75
2022-08-17T18:41:30.703Z,95625.47
2022-08-17T18:44:04.377Z,95619.34
2022-08-17T18:46:35.943Z,95617.28
2022-08-17T18:49:08.532Z,95641.19
2022-08-17T18:51:43.256Z,95628.19
2022-08-17T18:54:21.168Z,95630.72
2022-08-17T18:56:59.020Z,95638.00
2022-08-17T18:59:29.930Z,95637.56
2022-08-17T19:01:59.882Z,95634.44
2022-08-17T19:04:42.446Z,95631.88
2022-08-17T19:07:12.070Z,95624.91
2022-08-17T19:09:43.824Z,95637.69
2022-08-17T19:12:21.614Z,95639.56
2022-08-17T19:14:53.873Z,95628.97
2022-08-17T19:17:47.639Z,95631.06
2022-08-17T19:20:19.688Z,95624.34
2022-08-17T19:23:15.531Z,95615.19
2022-08-17T19:25:48.827Z,95617.66
2022-08-17T19:28:37.514Z,95608.22
2022-08-17T19:31:10.080Z,95599.81
2022-08-17T19:33:37.556Z,95617.09
2022-08-17T19:36:08.742Z,95612.38
2022-08-17T19:38:53.772Z,95625.66
2022-08-17T19:41:34.340Z,95610.72
2022-08-17T19:44:14.189Z,95626.53
2022-08-17T19:47:36.654Z,95639.13
2022-08-17T19:50:30.322Z,95616.41
2022-08-17T19:53:07.225Z,95636.19
2022-08-17T19:55:50.989Z,95660.50
2022-08-17T19:58:34.435Z,95643.69
2022-08-17T20:01:01.657Z,95642.00
2022-08-17T20:03:35.650Z,95641.16
2022-08-17T20:06:15.089Z,95642.00
2022-08-17T20:08:53.887Z,95643.44
2022-08-17T20:11:28.313Z,95660.13
2022-08-17T20:14:00.535Z,95661.59
2022-08-17T20:16:28.594Z,95631.47
2022-08-17T20:19:06.343Z,95662.41
2022-08-17T20:21:42.536Z,95641.97
2022-08-17T20:24:40.432Z,95667.28
2022-08-17T20:27:18.956Z,95657.91
2022-08-17T20:30:11.510Z,95671.59
2022-08-17T20:32:51.860Z,95658.56
2022-08-17T20:35:27.366Z,95652.88
2022-08-17T20:38:04.318Z,95639.19
2022-08-17T20:41:00.686Z,95628.31
2022-08-17T20:43:34.523Z,95639.56
2022-08-17T20:46:24.424Z,95629.28
2022-08-17T20:48:55.224Z,95617.34
2022-08-17T20:51:32.524Z,95622.97
2022-08-17T20:54:06.556Z,95630.38
2022-08-17T20:56:56.164Z,95639.19
2022-08-17T20:59:25.694Z,95633.75
2022-08-17T21:02:17.663Z,95637.25
2022-08-17T21:04:56.825Z,95641.84
2022-08-17T21:07:52.496Z,95618.63
2022-08-17T21:10:25.836Z,95634.34
2022-08-17T21:13:00.340Z,95644.50
2022-08-17T21:15:29.435Z,95648.25
2022-08-17T21:18:31.838Z,95648.06
2022-08-17T21:21:21.794Z,95649.59
2022-08-17T21:24:07.609Z,95637.34
2022-08-17T21:26:55.087Z,95647.50
2022-08-17T21:29:31.489Z,95625.47
2022-08-17T21:31:59.730Z,95625.84
2022-08-17T21:34:29.225Z,95630.22
2022-08-17T21:36:56.797Z,95608.09
2022-08-17T21:39:33.209Z,95605.34
2022-08-17T21:42:00.689Z,95621.00
2022-08-17T21:44:33.953Z,95618.47
2022-08-17T21:47:22.031Z,95642.28
2022-08-17T21:49:49.883Z,95635.78
2022-08-17T21:52:22.224Z,95627.19
2022-08-17T21:54:57.996Z,95632.28
2022-08-17T21:57:27.598Z,95642.88
2022-08-17T21:59:57.925Z,95630.88
2022-08-17T22:05:36.446Z,95659.00
2022-08-17T22:08:16.583Z,95671.34
2022-08-17T22:10:46.204Z,95680.31
2022-08-17T22:13:17.687Z,95690.75
2022-08-17T22:15:48.393Z,95674.06
2022-08-17T22:18:27.835Z,95673.72
2022-08-17T22:21:01.030Z,95700.97
2022-08-17T22:23:55.517Z,95718.84
2022-08-17T22:26:27.773Z,95729.59
2022-08-17T22:28:57.889Z,95751.34
2022-08-17T22:31:27.807Z,95770.91
2022-08-17T22:34:00.156Z,95797.25
2022-08-17T22:36:29.179Z,95819.09
2022-08-17T22:39:02.389Z,95843.59
2022-08-17T22:41:50.946Z,95857.75
2022-08-17T22:44:26.107Z,95885.44
2022-08-17T22:46:55.340Z,95879.72
2022-08-17T22:49:26.703Z,95865.16
2022-08-17T22:52:06.909Z,95882.44
2022-08-17T22:55:00.030Z,95883.81
2022-08-17T22:57:54.723Z,95894.72
2022-08-17T23:00:38.129Z,95900.44
2022-08-17T23:03:13.620Z,95925.25
2022-08-17T23:05:46.066Z,95938.78
2022-08-17T23:08:14.229Z,95918.63
2022-08-17T23:10:41.850Z,95941.03
2022-08-17T23:13:11.888Z,95936.59
2022-08-17T23:15:41.612Z,95930.28
2022-08-17T23:18:09.641Z,95952.69
2022-08-17T23:20:37.886Z,95967.50
2022-08-17T23:23:06.769Z,95970.94
2022-08-17T23:25:35.093Z,95984.06
2022-08-17T23:28:06.116Z,95974.53
2022-08-17T23:30:39.305Z,95968.53
2022-08-17T23:33:09.225Z,95975.56
2022-08-17T23:35:39.198Z,95939.66
2022-08-17T23:38:12.617Z,95929.16
2022-08-17T23:40:40.091Z,95896.44
2022-08-17T23:43:23.607Z,95870.91
2022-08-17T23:45:54.594Z,95840.81
2022-08-17T23:48:36.031Z,95839.50
2022-08-17T23:51:09.941Z,95847.06
2022-08-17T23:53:41.862Z,95861.78
2022-08-17T23:56:11.245Z,95893.53
2022-08-17T23:58:43.376Z,95853.41
